Corrida de Cori, Argentina
Current Conditions -  °F | °C
As of 7:00 PM on Wednesday 22 Oct 2014 (Local Time) from SCFA Reporting Station
Clear Clear  
Wind Chill: 63°   Ceiling: Unl
Heat Index: 63°   Visibility: 6mi
Dew Point: 52°   Wind: 12mph
Humidity: 68%   Direction: 200°SSW
Pressure: 29.88"   Gusts: NA
Location:  25.1°S, 68.33°W
Report Text: SCFA 222200Z 20010KT 170V230 CAVOK 17/11 Q1012 NOSIG
Loading
Personal Weather Stations






























Interactive Weather Map
Tropical Storm Tracking
New forecast layout! Learn more

10-Day Weather Forecast

Advertisements
Track Severe Weather on mobile